Station History

Weather Underground - logo

Station Historical Data
Daily Summary for January 4, 2018 Units:  Metric    English   Both
« Previous Day
Next Day »
Daily Weekly Monthly Yearly Custom
  High: Low: Average:
Temperature: 19.2 °C 9.8 °C 13.8 °C
Dew Point: 14.2 °C 5.9 °C 10.8 °C
Humidity: 96 % 67 % 82 %
Wind Speed: 9.3 km/h 0 km/h 1.6 km/h
Wind Gust: 9.3 km/h - -
Wind:- - West
Pressure: 1022.6 hPa 1017.5 hPa -
Precipitation: 0.25 mm    
Historical Graphs
 
 
Tabular Data for January 4, 2018
Time Temperature Dew Point Pressure Wind Wind Speed Wind Gust Humidity Rainfall Rate (Hourly)
00:02 9.8 °C 7.4 °C 1017.5 hPa East 1.9 km/h   85 % 0 mm
00:04 9.8 °C 7.4 °C 1017.5 hPa NW 1.6 km/h 1.6 km/h 85 % 0 mm
00:05 9.8 °C 7.4 °C 1017.5 hPa NW 1.9 km/h 1.9 km/h 85 % 0 mm
00:07 9.8 °C 7.4 °C 1017.5 hPa Calm     85 % 0 mm
00:12 9.9 °C 7.3 °C 1017.5 hPa Calm     84 % 0 mm
00:16 10.2 °C 7.4 °C 1017.5 hPa NNW 3.7 km/h 3.7 km/h 83 % 0 mm
00:19 10.2 °C 7.3 °C 1017.5 hPa North 1.9 km/h 1.9 km/h 82 % 0 mm
00:24 10.3 °C 7.4 °C 1017.5 hPa North 3.7 km/h 3.7 km/h 82 % 0 mm
00:26 10.3 °C 7.2 °C 1017.5 hPa WNW 1.9 km/h 1.9 km/h 81 % 0 mm
00:27 10.3 °C 7.2 °C 1017.5 hPa WNW 1.9 km/h 1.9 km/h 81 % 0 mm
00:32 10.3 °C 7.2 °C 1017.5 hPa NNW 1.9 km/h   81 % 0 mm
00:37 10.3 °C 7.2 °C 1017.5 hPa NNW 1.9 km/h 1.9 km/h 81 % 0 mm
00:38 10.3 °C 7.2 °C 1017.5 hPa NNW 3.2 km/h 3.2 km/h 81 % 0 mm
00:43 10.3 °C 7.2 °C 1017.5 hPa NW 1.9 km/h 1.9 km/h 81 % 0 mm
00:48 10.4 °C 7.3 °C 1017.5 hPa NW 1.9 km/h   81 % 0 mm
00:50 10.4 °C 7.3 °C 1017.5 hPa WNW 1.9 km/h 1.9 km/h 81 % 0 mm
00:51 10.4 °C 7.3 °C 1017.5 hPa Calm     81 % 0 mm
00:52 10.4 °C 7.3 °C 1017.5 hPa Calm     81 % 0 mm
00:59 10.4 °C 7.2 °C 1017.5 hPa Calm     80 % 0 mm
01:04 10.4 °C 6.9 °C 1017.5 hPa Calm     79 % 0 mm
01:05 10.4 °C 6.9 °C 1017.5 hPa Calm     79 % 0 mm
01:10 10.5 °C 7 °C 1017.5 hPa WNW 1.9 km/h   79 % 0 mm
01:11 10.6 °C 7.1 °C 1017.5 hPa Calm     79 % 0 mm
01:14 10.6 °C 6.9 °C 1017.5 hPa Calm     78 % 0 mm
01:19 10.5 °C 6.8 °C 1017.5 hPa Calm     78 % 0 mm
01:20 10.5 °C 6.8 °C 1017.5 hPa Calm     78 % 0 mm
01:25 10.7 °C 6.8 °C 1017.5 hPa Calm     77 % 0 mm
01:30 10.9 °C 6.6 °C 1017.5 hPa NW 3.7 km/h 3.7 km/h 75 % 0 mm
01:35 10.9 °C 6.5 °C 1017.5 hPa Calm     74 % 0 mm
01:37 11 °C 6.3 °C 1017.5 hPa Calm     73 % 0 mm
01:42 11.2 °C 6.2 °C 1017.5 hPa Calm     71 % 0 mm
01:43 11.3 °C 6.1 °C 1017.5 hPa WNW 1.9 km/h   70 % 0 mm
01:48 11.8 °C 6.1 °C 1017.5 hPa Calm     68 % 0 mm
01:49 11.8 °C 5.9 °C 1017.5 hPa Calm     67 % 0 mm
01:54 11.8 °C 6.3 °C 1017.8 hPa Calm     69 % 0 mm
01:55 11.7 °C 6.4 °C 1017.8 hPa Calm     70 % 0 mm
01:58 11.5 °C 6.4 °C 1017.8 hPa Calm     71 % 0 mm
02:03 11.1 °C 6.3 °C 1017.8 hPa Calm     72 % 0 mm
02:08 10.9 °C 6.1 °C 1017.8 hPa Calm     72 % 0 mm
02:09 10.9 °C 6.1 °C 1017.8 hPa Calm     72 % 0 mm
02:10 10.9 °C 6.1 °C 1017.8 hPa Calm     72 % 0 mm
02:15 11 °C 5.9 °C 1017.8 hPa Calm     71 % 0 mm
02:18 10.9 °C 6.1 °C 1017.8 hPa Calm     72 % 0 mm
02:23 10.9 °C 6.4 °C 1018.2 hPa Calm   0.2 km/h 74 % 0 mm
02:28 10.8 °C 6.3 °C 1018.2 hPa Calm     74 % 0 mm
02:32 10.7 °C 6.4 °C 1018.2 hPa Calm     75 % 0 mm
02:34 10.7 °C 6.4 °C 1018.2 hPa Calm     75 % 0 mm
02:39 10.7 °C 7 °C 1017.8 hPa Calm     78 % 0 mm
02:43 10.7 °C 7.2 °C 1018.2 hPa Calm     79 % 0 mm
02:44 10.7 °C 7.2 °C 1018.2 hPa Calm     79 % 0 mm
02:48 10.7 °C 7.6 °C 1018.2 hPa Calm     81 % 0 mm
02:50 10.6 °C 7.5 °C 1018.2 hPa Calm     81 % 0 mm
02:55 10.4 °C 7.5 °C 1018.5 hPa Calm     82 % 0 mm
03:00 10.4 °C 7.6 °C 1018.5 hPa Calm     83 % 0 mm
03:01 10.3 °C 7.6 °C 1018.5 hPa Calm     83 % 0 mm
03:06 10.4 °C 7.4 °C 1018.5 hPa Calm     82 % 0 mm
03:12 10.6 °C 7.3 °C 1018.5 hPa NW 1.9 km/h 1.9 km/h 80 % 0 mm
03:14 10.8 °C 7.3 °C 1018.5 hPa NW 5.6 km/h 5.6 km/h 79 % 0 mm
03:16 10.8 °C 7.3 °C 1018.5 hPa NW 3.2 km/h 3.2 km/h 79 % 0 mm
03:21 10.9 °C 7.3 °C 1018.5 hPa NW 1.9 km/h 1.9 km/h 78 % 0 mm
03:23 11 °C 7.1 °C 1018.8 hPa NW 1.9 km/h 1.9 km/h 77 % 0 mm
03:28 11.1 °C 7.2 °C 1018.8 hPa WNW 3.7 km/h 3.7 km/h 77 % 0 mm
03:29 11.1 °C 7.4 °C 1018.5 hPa WNW 1.9 km/h 1.9 km/h 78 % 0 mm
03:34 11 °C 7.5 °C 1018.8 hPa Calm     79 % 0 mm
03:37 10.9 °C 7.4 °C 1018.8 hPa WNW 1.9 km/h 1.9 km/h 79 % 0 mm
03:42 10.9 °C 7.4 °C 1018.8 hPa Calm     79 % 0 mm
03:43 10.9 °C 7.6 °C 1018.8 hPa Calm     80 % 0 mm
03:48 10.8 °C 7.5 °C 1018.5 hPa Calm     80 % 0 mm
03:51 10.8 °C 7.5 °C 1018.5 hPa Calm     80 % 0 mm
03:56 10.9 °C 7.8 °C 1018.8 hPa WNW 1.9 km/h   81 % 0.25 mm
03:59 10.9 °C 7.8 °C 1018.8 hPa WNW 1.9 km/h 1.9 km/h 81 % 0.25 mm
04:04 11.1 °C 7.9 °C 1018.8 hPa North 3.7 km/h 3.7 km/h 81 % 0.25 mm
04:05 11.1 °C 7.9 °C 1018.8 hPa NW 3.7 km/h 3.7 km/h 81 % 0.25 mm
04:10 11.2 °C 7.9 °C 1018.8 hPa Calm   0.2 km/h 80 % 0.25 mm
04:15 11.3 °C 7.9 °C 1018.8 hPa WNW 1.6 km/h 1.6 km/h 80 % 0.25 mm
04:19 11.3 °C 8 °C 1018.5 hPa NW 3.7 km/h 3.7 km/h 80 % 0.25 mm
04:21 11.3 °C 8 °C 1018.5 hPa NW 1.9 km/h 1.9 km/h 80 % 0.25 mm
04:26 11.4 °C 8.1 °C 1018.8 hPa WNW 1.9 km/h 1.9 km/h 80 % 0.25 mm
04:28 11.3 °C 8.2 °C 1018.8 hPa WNW 3.7 km/h 3.7 km/h 81 % 0.25 mm
04:33 11.2 °C 8.4 °C 1019.2 hPa Calm     83 % 0.25 mm
04:38 11 °C 8.4 °C 1018.8 hPa NW 1.9 km/h 1.9 km/h 84 % 0.25 mm
04:40 11 °C 8.4 °C 1018.8 hPa WNW 1.9 km/h 1.9 km/h 84 % 0.25 mm
04:45 11.1 °C 8.5 °C 1018.8 hPa NW 1.9 km/h 1.9 km/h 84 % 0.25 mm
04:47 11.1 °C 8.5 °C 1018.8 hPa Calm     84 % 0.25 mm
04:51 11.2 °C 8.4 °C 1018.8 hPa NW 5.6 km/h 5.6 km/h 83 % 0.25 mm
04:55 11.2 °C 8.4 °C 1018.8 hPa NW 1.9 km/h   83 % 0 mm
04:59 11.3 °C 8.2 °C 1018.8 hPa Calm     81 % 0 mm
05:02 11.5 °C 8.6 °C 1018.8 hPa NW 5.6 km/h 5.6 km/h 82 % 0 mm
05:04 11.4 °C 8.5 °C 1018.8 hPa NNW 3.7 km/h 3.7 km/h 82 % 0 mm
05:08 11.4 °C 8.3 °C 1018.5 hPa NW 3.7 km/h 3.7 km/h 81 % 0 mm
05:11 11.5 °C 8.2 °C 1018.5 hPa NW 1.9 km/h 1.9 km/h 80 % 0 mm
05:15 11.7 °C 8.3 °C 1018.5 hPa NW 3.7 km/h 3.7 km/h 80 % 0 mm
05:21 11.7 °C 8.3 °C 1018.5 hPa NW 1.9 km/h   80 % 0 mm
05:26 11.7 °C 8.2 °C 1018.5 hPa NW 1.9 km/h 1.9 km/h 79 % 0 mm
05:30 11.8 °C 8.1 °C 1018.5 hPa NW 1.9 km/h 1.9 km/h 78 % 0 mm
05:35 11.9 °C 8.2 °C 1018.5 hPa NW 1.9 km/h 1.9 km/h 78 % 0 mm
05:40 12 °C 8.1 °C 1018.8 hPa WNW 1.9 km/h 1.9 km/h 77 % 0 mm
05:42 12.1 °C 8.3 °C 1018.8 hPa WNW 1.9 km/h 1.9 km/h 78 % 0 mm
05:45 11.9 °C 8.4 °C 1019.2 hPa WSW 1.9 km/h 1.9 km/h 79 % 0 mm
05:46 11.9 °C 8.3 °C 1019.2 hPa WSW 1.9 km/h   79 % 0 mm
05:51 11.7 °C 8.6 °C 1019.5 hPa Calm     81 % 0 mm
05:54 11.7 °C 8.7 °C 1019.5 hPa WNW 1.9 km/h 1.9 km/h 82 % 0 mm
05:59 11.6 °C 8.8 °C 1019.9 hPa NW 1.9 km/h 1.9 km/h 83 % 0 mm
06:04 11.6 °C 8.8 °C 1019.9 hPa Calm     83 % 0 mm
06:09 11.6 °C 8.8 °C 1019.9 hPa Calm     83 % 0 mm
06:14 11.4 °C 8.8 °C 1019.5 hPa Calm     84 % 0 mm
06:15 11.4 °C 8.8 °C 1019.5 hPa Calm     84 % 0 mm
06:19 11.4 °C 8.9 °C 1019.5 hPa SE 1.9 km/h 1.9 km/h 85 % 0 mm
06:24 11.3 °C 9.1 °C 1019.5 hPa Calm     86 % 0 mm
06:25 11.3 °C 9 °C 1019.9 hPa Calm     86 % 0 mm
06:30 11.2 °C 8.9 °C 1020.2 hPa Calm     86 % 0 mm
06:32 11.2 °C 8.9 °C 1020.2 hPa Calm     86 % 0 mm
06:37 11.2 °C 9.1 °C 1020.2 hPa Calm     87 % 0 mm
06:42 11.1 °C 9.1 °C 1020.2 hPa Calm     87 % 0 mm
06:44 11.1 °C 9.1 °C 1020.2 hPa WNW 1.9 km/h 1.9 km/h 87 % 0 mm
06:49 11.2 °C 9.1 °C 1020.2 hPa NW 4.8 km/h 4.8 km/h 87 % 0 mm
06:51 11.3 °C 9 °C 1020.2 hPa NW 5.6 km/h 5.6 km/h 86 % 0 mm
06:55 11.4 °C 9 °C 1020.2 hPa NW 3.7 km/h 3.7 km/h 85 % 0 mm
06:57 11.4 °C 9 °C 1020.2 hPa NNW 1.9 km/h 1.9 km/h 85 % 0 mm
07:02 11.6 °C 8.9 °C 1020.2 hPa NW 1.9 km/h 1.9 km/h 84 % 0 mm
07:06 11.7 °C 9.1 °C 1020.2 hPa NNW 1.9 km/h 1.9 km/h 84 % 0 mm
07:11 11.8 °C 9.2 °C 1020.2 hPa North 1.9 km/h 1.9 km/h 84 % 0 mm
07:17 11.9 °C 9.3 °C 1020.5 hPa WNW 1.9 km/h   84 % 0 mm
07:20 11.9 °C 9.2 °C 1020.5 hPa WNW 1.9 km/h 1.9 km/h 83 % 0 mm
07:21 11.9 °C 9.3 °C 1020.5 hPa North 6.4 km/h 6.4 km/h 84 % 0 mm
07:23 12 °C 9.2 °C 1020.5 hPa NW 5.6 km/h 5.6 km/h 83 % 0 mm
07:24 12 °C 9.4 °C 1020.5 hPa NW 1.9 km/h 1.9 km/h 84 % 0 mm
07:27 12.1 °C 9.4 °C 1020.9 hPa NW 1.9 km/h 1.9 km/h 84 % 0 mm
07:32 12.1 °C 9.4 °C 1020.9 hPa Calm     84 % 0 mm
07:36 12 °C 9.6 °C 1020.9 hPa NW 1.9 km/h 1.9 km/h 85 % 0 mm
07:41 11.9 °C 9.5 °C 1020.9 hPa North 1.9 km/h 1.9 km/h 85 % 0 mm
07:45 12 °C 9.6 °C 1021.2 hPa NW 1.9 km/h 1.9 km/h 85 % 0 mm
07:48 11.9 °C 9.5 °C 1020.9 hPa NNW 3.7 km/h 3.7 km/h 85 % 0 mm
07:50 11.9 °C 9.5 °C 1020.9 hPa NNW 1.9 km/h 1.9 km/h 85 % 0 mm
07:54 11.9 °C 9.5 °C 1020.9 hPa Calm     85 % 0 mm
07:59 11.9 °C 9.6 °C 1020.9 hPa ESE 3.7 km/h 3.7 km/h 86 % 0 mm
08:04 12 °C 9.6 °C 1020.9 hPa Calm     85 % 0 mm
08:06 12 °C 9.6 °C 1020.9 hPa WNW 1.6 km/h 1.6 km/h 85 % 0 mm
08:11 12.1 °C 9.6 °C 1020.9 hPa Calm     85 % 0 mm
08:14 12.2 °C 9.7 °C 1021.2 hPa WNW 1.9 km/h   85 % 0 mm
08:19 12.2 °C 9.8 °C 1021.2 hPa WNW 1.9 km/h 1.9 km/h 85 % 0 mm
08:20 12.3 °C 9.8 °C 1021.2 hPa WNW 1.9 km/h   85 % 0 mm
08:21 12.3 °C 9.8 °C 1021.2 hPa NW 1.9 km/h   85 % 0 mm
08:25 12.3 °C 9.9 °C 1021.2 hPa Calm     85 % 0 mm
08:27 12.4 °C 9.9 °C 1021.2 hPa Calm     85 % 0 mm
08:30 12.4 °C 10 °C 1021.2 hPa Calm     85 % 0 mm
08:35 12.6 °C 10 °C 1021.2 hPa NW 3.7 km/h 3.7 km/h 84 % 0 mm
08:38 12.7 °C 10.1 °C 1021.6 hPa WNW 1.9 km/h   84 % 0 mm
08:40 12.8 °C 10.2 °C 1021.6 hPa Calm     84 % 0 mm
08:45 12.8 °C 10.2 °C 1021.6 hPa WNW 1.9 km/h 1.9 km/h 84 % 0 mm
08:48 12.8 °C 10.2 °C 1021.6 hPa WNW 1.9 km/h 1.9 km/h 84 % 0 mm
08:53 12.9 °C 10.1 °C 1021.2 hPa WNW 1.9 km/h 1.9 km/h 83 % 0 mm
08:57 12.9 °C 10.3 °C 1021.2 hPa NW 5.6 km/h   84 % 0 mm
08:59 12.9 °C 10.3 °C 1021.2 hPa NW 1.9 km/h   84 % 0 mm
09:04 12.9 °C 10.3 °C 1021.2 hPa NW 3.7 km/h 3.7 km/h 84 % 0 mm
09:09 13 °C 10.3 °C 1021.2 hPa North 1.9 km/h 1.9 km/h 84 % 0 mm
09:10 13 °C 10.3 °C 1021.2 hPa North 1.9 km/h 1.9 km/h 84 % 0 mm
09:15 13.2 °C 10.3 °C 1021.2 hPa NW 1.9 km/h 1.9 km/h 83 % 0 mm
09:19 13.2 °C 10.4 °C 1021.2 hPa NNW 3.2 km/h 3.5 km/h 83 % 0 mm
09:22 13.4 °C 10.4 °C 1021.2 hPa NW 3.7 km/h 3.7 km/h 82 % 0 mm
09:25 13.4 °C 10.4 °C 1021.6 hPa NW 3.7 km/h 3.7 km/h 82 % 0 mm
09:30 13.7 °C 10.3 °C 1021.6 hPa NW 1.9 km/h 1.9 km/h 80 % 0 mm
09:31 13.7 °C 10.3 °C 1021.6 hPa NW 1.9 km/h 1.9 km/h 80 % 0 mm
09:36 14 °C 10.6 °C 1021.6 hPa Calm     80 % 0 mm
09:46 14.8 °C 11 °C 1021.6 hPa Calm   0.6 km/h 78 % 0 mm
09:48 14.9 °C 10.9 °C 1021.6 hPa WNW 1.9 km/h 1.9 km/h 77 % 0 mm
09:53 15.3 °C 11.1 °C 1021.6 hPa NNW 1.9 km/h   76 % 0 mm
09:59 15.6 °C 10.9 °C 1021.9 hPa Calm     74 % 0 mm
10:04 15.9 °C 11.3 °C 1021.9 hPa East 5.6 km/h 5.6 km/h 74 % 0 mm
10:08 16.2 °C 11.5 °C 1021.9 hPa SSW 5.6 km/h 5.6 km/h 74 % 0 mm
10:13 16.4 °C 12 °C 1022.2 hPa South 9.3 km/h 9.3 km/h 75 % 0 mm
10:15 16.4 °C 12.2 °C 1022.2 hPa SSW 3.7 km/h 3.7 km/h 76 % 0 mm
10:20 16.2 °C 11.7 °C 1022.2 hPa NNW 3.7 km/h 3.7 km/h 75 % 0 mm
10:21 16.1 °C 11.7 °C 1022.2 hPa SSE 5.6 km/h 5.6 km/h 75 % 0 mm
10:26 16 °C 11.9 °C 1021.9 hPa SSW 7.4 km/h 7.4 km/h 77 % 0 mm
10:30 15.9 °C 11.9 °C 1022.2 hPa NNW 5.6 km/h 5.6 km/h 77 % 0 mm
10:35 15.9 °C 12.1 °C 1021.9 hPa NNW 5.6 km/h 5.6 km/h 78 % 0 mm
10:40 15.7 °C 12.1 °C 1021.9 hPa SSW 3.7 km/h 3.7 km/h 79 % 0 mm
10:41 15.7 °C 12.1 °C 1021.9 hPa SSW 3.7 km/h 3.7 km/h 79 % 0 mm
10:42 15.7 °C 12.3 °C 1021.9 hPa SSE 1.9 km/h 1.9 km/h 80 % 0 mm
10:47 15.7 °C 12.3 °C 1021.9 hPa Calm     80 % 0 mm
10:48 15.7 °C 12.4 °C 1021.9 hPa Calm     81 % 0 mm
10:53 15.7 °C 12.4 °C 1021.9 hPa SSW 3.7 km/h 3.7 km/h 81 % 0 mm
10:55 15.7 °C 12.4 °C 1021.9 hPa SSE 5.6 km/h 5.6 km/h 81 % 0 mm
11:01 15.8 °C 12.5 °C 1021.9 hPa SSE 5.6 km/h 5.6 km/h 81 % 0 mm
11:06 15.8 °C 12.6 °C 1021.9 hPa South 5.6 km/h 5.6 km/h 81 % 0 mm
11:10 15.9 °C 12.5 °C 1021.9 hPa SE 5.6 km/h 5.6 km/h 80 % 0 mm
11:15 16.1 °C 12.6 °C 1021.9 hPa SE 9.3 km/h 9.3 km/h 80 % 0 mm
11:19 16.2 °C 12.5 °C 1021.6 hPa East 5.6 km/h 5.6 km/h 79 % 0 mm
11:20 16.2 °C 12.5 °C 1021.6 hPa SSE 5.6 km/h 5.6 km/h 79 % 0 mm
11:24 16.2 °C 12.5 °C 1021.6 hPa NE 5.6 km/h 5.6 km/h 79 % 0 mm
11:29 16.2 °C 12.5 °C 1021.6 hPa South 5.6 km/h 5.6 km/h 79 % 0 mm
11:34 16.1 °C 12.4 °C 1021.2 hPa SSE 5.6 km/h 5.6 km/h 79 % 0 mm
11:39 16.1 °C 12.4 °C 1021.2 hPa NE 7.4 km/h 7.4 km/h 79 % 0 mm
11:45 16.1 °C 12.4 °C 1020.9 hPa SE 5.6 km/h 5.6 km/h 79 % 0 mm
11:48 16 °C 12.3 °C 1020.9 hPa East 7.4 km/h 7.4 km/h 79 % 0 mm
11:53 16.1 °C 12.3 °C 1020.9 hPa ESE 3.7 km/h 3.7 km/h 78 % 0 mm
11:58 16.4 °C 12.6 °C 1020.5 hPa East 4.8 km/h 4.8 km/h 78 % 0 mm
12:04 16.9 °C 12.7 °C 1020.2 hPa SSE 5.6 km/h 5.6 km/h 76 % 0 mm
12:05 16.9 °C 12.7 °C 1020.2 hPa SSE 5.6 km/h 5.6 km/h 76 % 0 mm
12:11 17.7 °C 13.2 °C 1020.2 hPa Calm     75 % 0 mm
12:14 18.1 °C 13.2 °C 1020.2 hPa SSW 1.9 km/h 1.9 km/h 73 % 0 mm
12:16 18.3 °C 13.4 °C 1020.2 hPa SSE 1.9 km/h 1.9 km/h 73 % 0 mm
12:17 18.4 °C 13.3 °C 1020.2 hPa North 3.7 km/h 3.7 km/h 72 % 0 mm
12:21 18.7 °C 13.1 °C 1020.2 hPa SSW 5.6 km/h 5.6 km/h 70 % 0 mm
12:26 18.8 °C 12.9 °C 1020.2 hPa NW 5.6 km/h 5.6 km/h 69 % 0 mm
12:31 18.7 °C 13.1 °C 1020.2 hPa SSW 9.3 km/h 9.3 km/h 70 % 0 mm
12:33 18.7 °C 13.1 °C 1020.2 hPa SE 3.7 km/h 3.7 km/h 70 % 0 mm
12:38 18.7 °C 13.3 °C 1019.9 hPa SSE 5.6 km/h 5.6 km/h 71 % 0 mm
12:42 18.6 °C 13.4 °C 1019.9 hPa NNE 5.6 km/h 5.6 km/h 72 % 0 mm
12:44 18.6 °C 13.4 °C 1019.9 hPa NW 3.7 km/h 3.7 km/h 72 % 0 mm
12:47 18.5 °C 13.3 °C 1019.9 hPa SSE 3.7 km/h 3.7 km/h 72 % 0 mm
12:49 18.5 °C 13.6 °C 1019.9 hPa SSW 5.6 km/h 5.6 km/h 73 % 0 mm
12:54 18.6 °C 13.4 °C 1019.9 hPa NNW 5.6 km/h 5.6 km/h 72 % 0 mm
12:56 18.5 °C 13.6 °C 1019.9 hPa ESE 5.6 km/h 5.6 km/h 73 % 0 mm
13:01 18.4 °C 13.7 °C 1019.9 hPa NNW 3.7 km/h 3.7 km/h 74 % 0 mm
13:06 18.3 °C 13.6 °C 1019.9 hPa NNW 5.6 km/h 5.6 km/h 74 % 0 mm
13:09 18.1 °C 13.8 °C 1019.9 hPa North 3.7 km/h   76 % 0 mm
13:10 18.1 °C 13.8 °C 1019.5 hPa North 3.7 km/h 3.7 km/h 76 % 0 mm
13:16 17.8 °C 13.7 °C 1019.5 hPa NNW 3.7 km/h 3.7 km/h 77 % 0 mm
13:18 17.7 °C 13.8 °C 1019.5 hPa NW 1.9 km/h 1.9 km/h 78 % 0 mm
13:23 17.8 °C 13.7 °C 1019.5 hPa NNW 5.6 km/h 5.6 km/h 77 % 0 mm
13:27 17.9 °C 13.6 °C 1019.5 hPa NE 1.9 km/h 1.9 km/h 76 % 0 mm
13:29 18 °C 13.7 °C 1019.5 hPa NNW 4.8 km/h 4.8 km/h 76 % 0 mm
13:30 18.1 °C 13.8 °C 1019.5 hPa WNW 5.6 km/h 5.6 km/h 76 % 0 mm
13:33 18.3 °C 14 °C 1019.5 hPa ESE 3.7 km/h 3.7 km/h 76 % 0 mm
13:35 18.4 °C 13.9 °C 1019.5 hPa ESE 3.7 km/h 3.7 km/h 75 % 0 mm
13:36 18.6 °C 14.1 °C 1019.5 hPa SE 1.9 km/h   75 % 0 mm
13:38 18.6 °C 13.8 °C 1019.5 hPa North 3.7 km/h 3.7 km/h 74 % 0 mm
13:40 18.5 °C 13.8 °C 1019.5 hPa SSE 1.9 km/h 1.9 km/h 74 % 0 mm
13:43 18.6 °C 13.9 °C 1019.5 hPa South 3.7 km/h 3.7 km/h 74 % 0 mm
13:47 18.8 °C 13.8 °C 1019.2 hPa SSW 9.3 km/h 9.3 km/h 73 % 0 mm
13:48 18.8 °C 13.8 °C 1019.2 hPa South 1.9 km/h 1.9 km/h 73 % 0 mm
13:50 18.9 °C 13.9 °C 1019.2 hPa SE 1.6 km/h 1.9 km/h 73 % 0 mm
13:53 19 °C 13.8 °C 1019.2 hPa SSE 5.6 km/h   72 % 0 mm
13:59 19.1 °C 13.7 °C 1019.2 hPa NNW 3.7 km/h 3.7 km/h 71 % 0 mm
14:04 18.9 °C 13.5 °C 1019.2 hPa NNW 1.9 km/h 1.9 km/h 71 % 0 mm
14:05 18.8 °C 13.4 °C 1019.2 hPa WNW 1.9 km/h 1.9 km/h 71 % 0 mm
14:09 18.8 °C 13.6 °C 1019.2 hPa WNW 1.9 km/h   72 % 0 mm
14:14 18.8 °C 13.7 °C 1019.2 hPa NNW 1.6 km/h 1.6 km/h 72 % 0 mm
14:15 18.8 °C 13.6 °C 1019.2 hPa NNW 3.7 km/h 3.7 km/h 72 % 0 mm
14:20 18.8 °C 13.7 °C 1018.8 hPa Calm     72 % 0 mm
14:24 18.7 °C 13.6 °C 1018.8 hPa NW 1.9 km/h 1.9 km/h 72 % 0 mm
14:29 18.6 °C 13.7 °C 1018.8 hPa NW 1.6 km/h   73 % 0 mm
14:34 18.6 °C 13.7 °C 1018.8 hPa SSE 1.9 km/h 1.9 km/h 73 % 0 mm
14:38 18.7 °C 13.7 °C 1018.8 hPa SSE 1.9 km/h 1.9 km/h 73 % 0 mm
14:40 18.7 °C 14 °C 1018.8 hPa Calm     74 % 0 mm
14:45 18.8 °C 13.9 °C 1018.8 hPa Calm     73 % 0 mm
14:52 19 °C 14.1 °C 1018.8 hPa SSW 1.9 km/h 1.9 km/h 73 % 0 mm
14:54 19.1 °C 13.9 °C 1018.8 hPa NW 1.9 km/h   72 % 0 mm
14:59 19.2 °C 14.1 °C 1018.8 hPa NW 3.7 km/h 3.7 km/h 72 % 0 mm
15:04 19.2 °C 13.8 °C 1018.5 hPa WNW 1.9 km/h 1.9 km/h 71 % 0 mm
15:09 19.2 °C 14.1 °C 1018.5 hPa Calm   1 km/h 72 % 0 mm
15:14 19.2 °C 14.1 °C 1018.5 hPa WNW 1.9 km/h 1.9 km/h 72 % 0 mm
15:20 19.1 °C 13.9 °C 1018.5 hPa WNW 1.9 km/h   72 % 0 mm
15:25 19.1 °C 13.9 °C 1018.5 hPa WNW 3.7 km/h 3.7 km/h 72 % 0 mm
15:27 19 °C 13.8 °C 1018.5 hPa Calm     72 % 0 mm
15:32 19 °C 13.8 °C 1018.5 hPa NW 1.9 km/h 1.9 km/h 72 % 0 mm
15:38 18.8 °C 13.9 °C 1018.5 hPa Calm     73 % 0 mm
15:40 18.8 °C 13.8 °C 1018.5 hPa WSW 1.9 km/h 1.9 km/h 73 % 0 mm
15:45 18.7 °C 13.9 °C 1018.5 hPa WSW 1.9 km/h   74 % 0 mm
15:47 18.7 °C 13.9 °C 1018.5 hPa WSW 1.9 km/h   74 % 0 mm
15:51 18.7 °C 14.2 °C 1018.5 hPa Calm     75 % 0 mm
15:53 18.6 °C 14.1 °C 1018.5 hPa SSE 1.9 km/h   75 % 0 mm
15:58 18.4 °C 13.9 °C 1018.5 hPa South 1.9 km/h 1.9 km/h 75 % 0 mm
16:03 18.3 °C 14 °C 1018.5 hPa SW 1.9 km/h   76 % 0 mm
16:09 18.2 °C 13.9 °C 1018.5 hPa Calm     76 % 0 mm
16:14 18.2 °C 14.1 °C 1018.5 hPa South 1.9 km/h 1.9 km/h 77 % 0 mm
16:15 18.1 °C 14 °C 1018.5 hPa South 1.9 km/h   77 % 0 mm
16:16 18.1 °C 14 °C 1018.5 hPa Calm     77 % 0 mm
16:21 18.1 °C 13.9 °C 1018.5 hPa WSW 1.9 km/h 1.9 km/h 77 % 0 mm
16:26 18.1 °C 14 °C 1018.5 hPa Calm     77 % 0 mm
16:31 18.1 °C 14 °C 1018.5 hPa Calm     77 % 0 mm
16:34 18.1 °C 14.2 °C 1018.5 hPa Calm     78 % 0 mm
16:40 18.1 °C 13.9 °C 1018.5 hPa Calm     77 % 0 mm
16:41 18.1 °C 13.9 °C 1018.5 hPa Calm     77 % 0 mm
16:46 18 °C 14.1 °C 1018.5 hPa Calm     78 % 0 mm
16:51 17.9 °C 14.1 °C 1018.8 hPa Calm     78 % 0 mm
16:52 17.9 °C 14.1 °C 1018.8 hPa Calm     78 % 0 mm
16:57 17.8 °C 13.9 °C 1018.8 hPa Calm     78 % 0 mm
17:02 17.7 °C 14 °C 1018.8 hPa Calm     79 % 0 mm
17:07 17.4 °C 13.9 °C 1018.8 hPa Calm     80 % 0 mm
17:11 17.3 °C 13.8 °C 1019.2 hPa Calm     80 % 0 mm
17:16 16.9 °C 13.7 °C 1019.2 hPa Calm     81 % 0 mm
17:21 16.7 °C 13.6 °C 1019.2 hPa Calm     82 % 0 mm
17:22 16.6 °C 13.4 °C 1019.2 hPa Calm     82 % 0 mm
17:27 16.3 °C 13.4 °C 1019.2 hPa Calm     83 % 0 mm
17:32 15.9 °C 13.2 °C 1019.2 hPa Calm     84 % 0 mm
17:34 15.8 °C 13.1 °C 1019.2 hPa Calm     84 % 0 mm
17:39 15.6 °C 13.3 °C 1019.2 hPa Calm     86 % 0 mm
17:40 15.6 °C 13.2 °C 1019.2 hPa Calm     86 % 0 mm
17:41 15.5 °C 13.2 °C 1019.2 hPa Calm     86 % 0 mm
17:46 15.3 °C 13 °C 1019.2 hPa Calm     86 % 0 mm
17:49 15.2 °C 13.1 °C 1019.2 hPa Calm     87 % 0 mm
17:54 15.1 °C 13.1 °C 1019.2 hPa Calm     88 % 0 mm
17:57 14.9 °C 13 °C 1019.2 hPa Calm     88 % 0 mm
18:01 14.8 °C 12.8 °C 1019.2 hPa Calm     88 % 0 mm
18:06 14.6 °C 12.6 °C 1019.2 hPa Calm     88 % 0 mm
18:09 14.4 °C 12.5 °C 1019.2 hPa Calm     88 % 0 mm
18:13 14.3 °C 12.5 °C 1019.2 hPa Calm     89 % 0 mm
18:16 14.2 °C 12.4 °C 1019.2 hPa Calm     89 % 0 mm
18:17 14.2 °C 12.4 °C 1019.2 hPa Calm     89 % 0 mm
18:23 14 °C 12.2 °C 1019.2 hPa Calm     89 % 0 mm
18:28 13.8 °C 12.2 °C 1019.2 hPa Calm     90 % 0 mm
18:29 13.8 °C 12.2 °C 1019.2 hPa Calm     90 % 0 mm
18:30 13.8 °C 12.2 °C 1019.2 hPa Calm     90 % 0 mm
18:36 13.7 °C 12.3 °C 1018.8 hPa Calm     91 % 0 mm
18:39 13.7 °C 12.2 °C 1018.8 hPa Calm     91 % 0 mm
18:44 13.4 °C 11.8 °C 1018.8 hPa Calm     90 % 0 mm
18:49 13.3 °C 11.8 °C 1019.2 hPa Calm     91 % 0 mm
18:54 13.2 °C 11.7 °C 1019.2 hPa Calm     91 % 0 mm
18:59 13 °C 11.6 °C 1019.2 hPa Calm     91 % 0 mm
19:00 13 °C 11.6 °C 1019.2 hPa Calm     91 % 0 mm
19:05 12.8 °C 11.3 °C 1019.2 hPa Calm     91 % 0 mm
19:06 12.8 °C 11.3 °C 1019.2 hPa Calm     91 % 0 mm
19:11 12.7 °C 11.2 °C 1019.2 hPa Calm     91 % 0 mm
19:16 12.7 °C 11.4 °C 1019.5 hPa Calm     92 % 0 mm
19:21 12.6 °C 11.3 °C 1019.5 hPa Calm     92 % 0 mm
19:26 12.4 °C 11.2 °C 1019.5 hPa Calm     92 % 0 mm
19:27 12.4 °C 11.2 °C 1019.5 hPa Calm     92 % 0 mm
19:29 12.4 °C 11.2 °C 1019.5 hPa Calm     92 % 0 mm
19:34 12.5 °C 11.4 °C 1019.5 hPa Calm     93 % 0 mm
19:39 12.5 °C 11.4 °C 1019.5 hPa Calm     93 % 0 mm
19:41 12.5 °C 11.4 °C 1019.5 hPa Calm     93 % 0 mm
19:44 12.5 °C 11.4 °C 1019.5 hPa Calm     93 % 0 mm
19:47 12.4 °C 11.3 °C 1019.5 hPa Calm     93 % 0 mm
19:52 12.4 °C 11.3 °C 1019.5 hPa Calm     93 % 0 mm
19:53 12.3 °C 11.2 °C 1019.5 hPa Calm     93 % 0 mm
19:58 12.3 °C 11.2 °C 1019.5 hPa Calm     93 % 0 mm
20:03 12.2 °C 11.1 °C 1019.9 hPa Calm     93 % 0 mm
20:09 12.1 °C 10.8 °C 1020.2 hPa Calm     92 % 0 mm
20:14 11.9 °C 10.6 °C 1020.2 hPa Calm     92 % 0 mm
20:16 11.9 °C 10.8 °C 1020.2 hPa Calm     93 % 0 mm
20:21 11.9 °C 10.8 °C 1020.5 hPa Calm     93 % 0 mm
20:22 11.9 °C 10.8 °C 1020.5 hPa Calm     93 % 0 mm
20:27 11.9 °C 10.8 °C 1020.2 hPa Calm     93 % 0 mm
20:30 11.8 °C 10.7 °C 1020.2 hPa Calm     93 % 0 mm
20:35 11.8 °C 10.7 °C 1020.5 hPa Calm     93 % 0 mm
20:36 11.7 °C 10.6 °C 1020.5 hPa Calm     93 % 0 mm
20:38 11.7 °C 10.6 °C 1020.5 hPa Calm     93 % 0 mm
20:43 11.6 °C 10.5 °C 1020.5 hPa Calm     93 % 0 mm
20:45 11.6 °C 10.4 °C 1020.5 hPa Calm     93 % 0 mm
20:50 11.6 °C 10.6 °C 1020.9 hPa Calm     94 % 0 mm
20:53 11.6 °C 10.7 °C 1021.2 hPa Calm     94 % 0 mm
20:58 11.7 °C 10.7 °C 1021.2 hPa Calm     94 % 0 mm
21:01 11.7 °C 10.7 °C 1021.6 hPa Calm     94 % 0 mm
21:06 11.4 °C 10.3 °C 1021.6 hPa Calm     93 % 0 mm
21:11 11.3 °C 10.4 °C 1021.9 hPa Calm     94 % 0 mm
21:14 11.3 °C 10.4 °C 1021.9 hPa Calm     94 % 0 mm
21:20 11.4 °C 10.5 °C 1021.9 hPa Calm     94 % 0 mm
21:23 11.5 °C 10.6 °C 1021.9 hPa Calm     94 % 0 mm
21:28 11.6 °C 10.8 °C 1021.9 hPa Calm     95 % 0 mm
21:30 11.6 °C 10.8 °C 1021.9 hPa Calm     95 % 0 mm
21:35 11.8 °C 11 °C 1021.9 hPa Calm     95 % 0 mm
21:39 11.9 °C 11.1 °C 1021.9 hPa Calm     95 % 0 mm
21:44 12.1 °C 11.3 °C 1022.2 hPa Calm     95 % 0 mm
21:45 12.1 °C 11.3 °C 1022.2 hPa Calm     95 % 0 mm
21:50 12.1 °C 11.3 °C 1022.2 hPa Calm     95 % 0 mm
21:52 12.1 °C 11.3 °C 1022.2 hPa Calm     95 % 0 mm
21:57 12.3 °C 11.7 °C 1022.6 hPa Calm     96 % 0 mm
21:58 12.3 °C 11.7 °C 1022.6 hPa Calm     96 % 0 mm
22:03 12.5 °C 11.9 °C 1022.2 hPa Calm     96 % 0 mm
22:08 12.6 °C 12 °C 1022.6 hPa Calm     96 % 0 mm
22:10 12.7 °C 12.1 °C 1022.6 hPa Calm     96 % 0 mm
22:14 12.8 °C 12.2 °C 1022.6 hPa Calm     96 % 0 mm
22:15 12.8 °C 12.2 °C 1022.6 hPa Calm     96 % 0 mm
22:20 13.2 °C 12.6 °C 1022.6 hPa WNW 1.9 km/h   96 % 0 mm
22:24 13.3 °C 12.7 °C 1022.6 hPa Calm     96 % 0 mm
22:27 13.3 °C 12.7 °C 1022.6 hPa Calm     96 % 0 mm
22:31 13.3 °C 12.6 °C 1022.6 hPa Calm     95 % 0 mm
22:36 13.3 °C 12.5 °C 1022.6 hPa Calm     95 % 0 mm
22:41 13.3 °C 12.6 °C 1022.6 hPa Calm     95 % 0 mm
22:46 13.4 °C 12.7 °C 1022.6 hPa Calm     95 % 0 mm
22:51 13.5 °C 12.6 °C 1022.6 hPa Calm     94 % 0 mm
22:56 13.6 °C 12.6 °C 1022.2 hPa Calm     94 % 0 mm
22:57 13.6 °C 12.7 °C 1022.6 hPa Calm     94 % 0 mm
23:02 13.7 °C 12.7 °C 1022.6 hPa Calm     94 % 0 mm
23:05 13.7 °C 12.7 °C 1022.2 hPa WNW 1.9 km/h 1.9 km/h 94 % 0 mm
23:10 13.8 °C 12.8 °C 1022.6 hPa Calm     94 % 0 mm
23:11 13.8 °C 12.8 °C 1022.6 hPa Calm     94 % 0 mm
23:16 13.8 °C 12.9 °C 1022.6 hPa NW 1.9 km/h 1.9 km/h 94 % 0 mm
23:23 13.9 °C 12.8 °C 1022.2 hPa NW 1.9 km/h 1.9 km/h 93 % 0 mm
23:28 13.9 °C 12.8 °C 1022.2 hPa Calm     93 % 0 mm
23:32 13.8 °C 12.7 °C 1022.2 hPa Calm     93 % 0 mm
23:34 13.8 °C 12.7 °C 1022.2 hPa Calm     93 % 0 mm
23:39 13.7 °C 12.6 °C 1022.2 hPa Calm     93 % 0 mm
23:41 13.6 °C 12.3 °C 1021.9 hPa Calm     92 % 0 mm
23:44 13.4 °C 12.2 °C 1021.9 hPa Calm     92 % 0 mm
23:49 13.3 °C 12.2 °C 1021.9 hPa Calm     93 % 0 mm
23:51 13.2 °C 12.1 °C 1021.9 hPa Calm     93 % 0 mm
23:56 13 °C 11.9 °C 1022.2 hPa Calm     93 % 0 mm
23:57 12.9 °C 11.8 °C 1021.9 hPa Calm     93 % 0 mm
Park Place, Exeter, Tulare County, California, USA
Compliments of Weather Underground - 3.25 mb